createdAt,value
2023-11-30T00:01:46.467Z,99770.50
2023-11-30T00:04:14.569Z,99776.47
2023-11-30T00:06:42.559Z,99766.78
2023-11-30T00:09:10.538Z,99772.97
2023-11-30T00:11:38.493Z,99778.56
2023-11-30T00:14:07.885Z,99784.53
2023-11-30T00:16:35.879Z,99778.34
2023-11-30T00:19:04.021Z,99772.56
2023-11-30T00:21:31.979Z,99769.25
2023-11-30T00:24:00.075Z,99777.53
2023-11-30T00:26:28.120Z,99780.00
2023-11-30T00:28:56.217Z,99780.00
2023-11-30T00:31:27.366Z,99779.19
2023-11-30T00:33:57.202Z,99779.19
2023-11-30T00:36:25.196Z,99769.25
2023-11-30T00:38:53.356Z,99776.47
2023-11-30T00:41:21.967Z,99788.28
2023-11-30T00:43:49.973Z,99786.63
2023-11-30T00:46:18.033Z,99786.00
2023-11-30T00:48:48.241Z,99777.94
2023-11-30T00:51:16.393Z,99782.72
2023-11-30T00:53:44.319Z,99771.34
2023-11-30T00:56:12.826Z,99777.53
2023-11-30T00:58:40.934Z,99774.84
2023-11-30T01:01:08.955Z,99776.72
2023-11-30T01:03:37.025Z,99758.72
2023-11-30T01:06:06.925Z,99756.03
2023-11-30T01:08:34.953Z,99767.59
2023-11-30T01:11:04.537Z,99772.16
2023-11-30T01:13:32.569Z,99768.44
2023-11-30T01:16:00.554Z,99773.22
2023-11-30T01:18:28.643Z,99767.00
2023-11-30T01:20:56.752Z,99757.28
2023-11-30T01:23:26.172Z,99754.41
2023-11-30T01:25:54.193Z,99751.72
2023-11-30T01:28:22.268Z,99742.81
2023-11-30T01:30:51.356Z,99745.28
2023-11-30T01:33:19.474Z,99751.47
2023-11-30T01:35:49.260Z,99754.16
2023-11-30T01:38:17.317Z,99743.41
2023-11-30T01:40:46.718Z,99740.72
2023-11-30T01:43:14.719Z,99744.25
2023-11-30T01:45:42.819Z,99740.97
2023-11-30T01:48:12.021Z,99741.16
2023-11-30T01:50:40.079Z,99730.66
2023-11-30T01:53:08.415Z,99727.09
2023-11-30T01:55:36.365Z,99730.84
2023-11-30T01:58:05.931Z,99714.72
2023-11-30T02:00:34.443Z,99711.41
2023-11-30T02:03:02.556Z,99710.41
2023-11-30T02:05:30.665Z,99708.72
2023-11-30T02:07:58.715Z,99706.84
2023-11-30T02:10:26.627Z,99696.34
2023-11-30T02:12:54.609Z,99701.47
2023-11-30T02:15:24.821Z,99690.16
2023-11-30T02:17:52.967Z,99692.84
2023-11-30T02:20:21.148Z,99681.66
2023-11-30T02:22:50.531Z,99687.84
2023-11-30T02:25:18.485Z,99689.72
2023-11-30T02:27:46.443Z,99694.09
2023-11-30T02:30:14.936Z,99689.72
2023-11-30T02:32:43.038Z,99681.66
2023-11-30T02:35:11.475Z,99677.09
2023-11-30T02:37:39.497Z,99672.59
2023-11-30T02:40:10.205Z,99674.22
2023-11-30T02:42:38.215Z,99668.84
2023-11-30T02:45:07.121Z,99671.34
2023-11-30T02:47:35.149Z,99668.84
2023-11-30T02:50:03.235Z,99667.22
2023-11-30T02:52:31.223Z,99670.91
2023-11-30T02:54:59.128Z,99668.22
2023-11-30T02:57:28.560Z,99662.25
2023-11-30T02:59:56.544Z,99660.59
2023-11-30T03:02:26.719Z,99663.28
2023-11-30T03:04:56.114Z,99656.28
2023-11-30T03:07:24.200Z,99650.09
2023-11-30T03:09:52.262Z,99656.47
2023-11-30T03:12:20.263Z,99648.41
2023-11-30T03:14:49.666Z,99648.22
2023-11-30T03:17:17.594Z,99648.22
2023-11-30T03:19:45.544Z,99634.16
2023-11-30T03:22:13.587Z,99644.91
2023-11-30T03:24:41.599Z,99644.91
2023-11-30T03:27:13.117Z,99644.91
2023-11-30T03:29:42.022Z,99639.53
2023-11-30T03:32:11.434Z,99639.75
2023-11-30T03:34:39.452Z,99642.44
2023-11-30T03:37:07.546Z,99633.78
2023-11-30T03:39:35.589Z,99624.88
2023-11-30T03:42:03.637Z,99635.41
2023-11-30T03:44:31.752Z,99628.19
2023-11-30T03:47:00.752Z,99625.50
2023-11-30T03:49:30.178Z,99627.16
2023-11-30T03:51:58.054Z,99621.78
2023-11-30T03:54:26.119Z,99622.59
2023-11-30T03:56:54.186Z,99626.09
2023-11-30T03:59:22.203Z,99619.09
2023-11-30T04:01:50.254Z,99607.72
2023-11-30T04:04:18.325Z,99614.97
2023-11-30T04:06:47.737Z,99609.38
2023-11-30T04:09:19.094Z,99606.91
2023-11-30T04:11:47.771Z,99593.69
2023-11-30T04:14:15.806Z,99588.31
2023-11-30T04:16:43.906Z,99591.00
2023-11-30T04:19:12.002Z,99593.69
2023-11-30T04:21:40.659Z,99585.63
2023-11-30T04:24:10.253Z,99580.47
2023-11-30T04:26:38.402Z,99575.09
2023-11-30T04:29:06.529Z,99573.44
2023-11-30T04:31:34.647Z,99578.00
2023-11-30T04:34:02.727Z,99578.81
2023-11-30T04:36:30.811Z,99582.31
2023-11-30T04:38:58.883Z,99573.66
2023-11-30T04:41:28.289Z,99576.34
2023-11-30T04:43:58.385Z,99580.06
2023-11-30T04:46:27.726Z,99579.25
2023-11-30T04:48:56.702Z,99578.44
2023-11-30T04:51:25.674Z,99558.59
2023-11-30T04:53:53.774Z,99558.38
2023-11-30T04:56:21.734Z,99561.88
2023-11-30T04:58:51.190Z,99561.88
2023-11-30T05:01:19.199Z,99561.88
2023-11-30T05:03:47.436Z,99556.50
2023-11-30T05:06:15.565Z,99555.47
2023-11-30T05:08:43.631Z,99545.78
2023-11-30T05:11:11.659Z,99555.91
2023-11-30T05:13:39.830Z,99556.94
2023-11-30T05:16:10.386Z,99568.72
2023-11-30T05:18:38.425Z,99567.06
2023-11-30T05:21:06.947Z,99560.06
2023-11-30T05:23:34.969Z,99544.97
2023-11-30T05:26:03.134Z,99538.78
2023-11-30T05:28:33.300Z,99540.66
2023-11-30T05:31:01.554Z,99540.41
2023-11-30T05:33:32.272Z,99538.78
2023-11-30T05:36:00.494Z,99550.34
2023-11-30T05:38:28.593Z,99536.91
2023-11-30T05:40:57.298Z,99537.97
2023-11-30T05:43:25.292Z,99543.34
2023-11-30T05:45:54.346Z,99541.66
2023-11-30T05:48:22.565Z,99530.09
2023-11-30T05:50:52.115Z,99535.47
2023-11-30T05:53:20.080Z,99530.94
2023-11-30T05:55:48.024Z,99514.81
2023-11-30T05:58:16.039Z,99520.19
2023-11-30T06:00:44.214Z,99522.06
2023-11-30T06:03:12.359Z,99516.47
2023-11-30T06:05:40.380Z,99512.13
2023-11-30T06:08:10.549Z,99511.09
2023-11-30T06:10:39.087Z,99504.06
2023-11-30T06:13:08.450Z,99504.06
2023-11-30T06:15:36.615Z,99506.97
2023-11-30T06:18:04.856Z,99503.47
2023-11-30T06:20:33.187Z,99498.13
2023-11-30T06:23:01.135Z,99495.44
2023-11-30T06:25:30.505Z,99503.69
2023-11-30T06:27:58.560Z,99510.09
2023-11-30T06:30:26.554Z,99511.94
2023-11-30T06:32:54.563Z,99513.00
2023-11-30T06:35:22.973Z,99510.31
2023-11-30T06:37:50.966Z,99511.56
2023-11-30T06:40:18.900Z,99515.06
2023-11-30T06:42:48.305Z,99494.63
2023-11-30T06:45:16.387Z,99502.06
2023-11-30T06:47:44.446Z,99493.41
2023-11-30T06:50:12.481Z,99487.44
2023-11-30T06:52:40.440Z,99500.03
2023-11-30T06:55:11.102Z,99506.25
2023-11-30T06:57:39.845Z,99516.97
2023-11-30T07:00:12.192Z,99515.31
2023-11-30T07:02:40.450Z,99517.78
2023-11-30T07:05:09.405Z,99513.25
2023-11-30T07:07:37.749Z,99514.88
2023-11-30T07:10:06.370Z,99508.50
2023-11-30T07:12:34.485Z,99511.19
2023-11-30T07:15:02.796Z,99509.06
2023-11-30T07:17:33.777Z,99494.00
2023-11-30T07:20:01.819Z,99499.63
2023-11-30T07:22:30.740Z,99510.13
2023-11-30T07:24:58.753Z,99504.75
2023-11-30T07:27:27.691Z,99489.69
2023-11-30T07:29:55.766Z,99480.59
2023-11-30T07:32:23.815Z,99476.84
2023-11-30T07:34:53.279Z,99475.84
2023-11-30T07:37:23.418Z,99470.66
2023-11-30T07:39:51.340Z,99463.44
2023-11-30T07:42:29.311Z,99464.03
2023-11-30T07:45:03.094Z,99461.34
2023-11-30T07:47:31.970Z,99464.88
2023-11-30T07:50:01.648Z,99461.97
2023-11-30T07:52:30.227Z,99463.03
2023-11-30T07:54:58.258Z,99458.66
2023-11-30T07:57:26.453Z,99463.22
2023-11-30T07:59:54.569Z,99452.28
2023-11-30T08:02:22.657Z,99461.97
2023-11-30T08:04:50.741Z,99473.53
2023-11-30T08:07:22.088Z,99469.81
2023-11-30T08:09:50.210Z,99457.84
2023-11-30T08:12:18.344Z,99456.16
2023-11-30T08:14:46.373Z,99446.03
2023-11-30T08:17:14.396Z,99436.72
2023-11-30T08:19:42.314Z,99439.41
2023-11-30T08:22:11.392Z,99417.94
2023-11-30T08:24:41.902Z,99421.44
2023-11-30T08:27:09.918Z,99423.50
2023-11-30T08:29:38.089Z,99421.66
2023-11-30T08:32:07.349Z,99412.75
2023-11-30T08:34:38.103Z,99435.09
2023-11-30T08:37:06.555Z,99443.16
2023-11-30T08:39:34.498Z,99448.53
2023-11-30T08:42:04.043Z,99451.22
2023-11-30T08:44:35.463Z,99459.03
2023-11-30T08:47:03.588Z,99449.34
2023-11-30T08:49:31.559Z,99427.03
2023-11-30T08:51:59.562Z,99430.53
2023-11-30T08:54:27.802Z,99416.06
2023-11-30T08:56:55.838Z,99418.13
2023-11-30T08:59:25.211Z,99407.38
2023-11-30T09:01:53.552Z,99411.75
2023-11-30T09:04:21.813Z,99409.06
2023-11-30T09:06:49.876Z,99396.66
2023-11-30T09:09:18.484Z,99393.97
2023-11-30T09:11:46.897Z,99395.84
2023-11-30T09:14:14.846Z,99381.59
2023-11-30T09:16:45.405Z,99380.53
2023-11-30T09:19:13.500Z,99373.72
2023-11-30T09:21:41.562Z,99371.66
2023-11-30T09:24:11.197Z,99352.03
2023-11-30T09:26:39.231Z,99351.84
2023-11-30T09:29:07.299Z,99352.66
2023-11-30T09:31:35.375Z,99368.78
2023-11-30T09:34:04.893Z,99369.38
2023-11-30T09:36:33.171Z,99344.16
2023-11-30T09:39:01.176Z,99339.59
2023-11-30T09:41:29.075Z,99331.34
2023-11-30T09:43:58.427Z,99336.09
2023-11-30T09:46:27.161Z,99327.00
2023-11-30T09:48:55.186Z,99321.41
2023-11-30T09:51:25.324Z,99316.84
2023-11-30T09:53:53.259Z,99302.38
2023-11-30T09:56:21.255Z,99302.38
2023-11-30T09:59:01.397Z,99302.16
2023-11-30T10:01:29.506Z,99292.25
2023-11-30T10:03:58.027Z,99287.69
2023-11-30T10:06:27.517Z,99292.25
2023-11-30T10:08:56.317Z,99289.56
2023-11-30T10:11:24.909Z,99274.50
2023-11-30T10:13:53.132Z,99278.81
2023-11-30T10:16:21.134Z,99272.63
2023-11-30T10:18:49.388Z,99264.56
2023-11-30T10:21:18.774Z,99264.56
2023-11-30T10:23:48.228Z,99253.81
2023-11-30T10:26:16.973Z,99248.66
2023-11-30T10:28:46.366Z,99253.63
2023-11-30T10:31:14.453Z,99261.66
2023-11-30T10:33:42.582Z,99261.66
2023-11-30T10:36:12.059Z,99267.03
2023-11-30T10:38:42.188Z,99267.84
2023-11-30T10:41:14.610Z,99266.81
2023-11-30T10:43:49.752Z,99275.66
2023-11-30T10:46:18.014Z,99264.34
2023-11-30T10:48:46.305Z,99261.44
2023-11-30T10:51:14.550Z,99264.94
2023-11-30T10:53:44.771Z,99262.25
2023-11-30T10:56:15.639Z,99263.91
2023-11-30T10:58:44.582Z,99271.34
2023-11-30T11:01:15.023Z,99273.00
2023-11-30T11:03:47.344Z,99273.00
2023-11-30T11:06:16.644Z,99272.78
2023-11-30T11:09:00.566Z,99278.34
2023-11-30T11:11:31.849Z,99280.03
2023-11-30T11:14:00.166Z,99278.16
2023-11-30T11:16:42.465Z,99279.22
2023-11-30T11:19:10.975Z,99275.47
2023-11-30T11:21:39.995Z,99274.66
2023-11-30T11:24:09.078Z,99273.84
2023-11-30T11:26:45.856Z,99270.91
2023-11-30T11:29:16.477Z,99277.09
2023-11-30T11:31:47.511Z,99269.28
2023-11-30T11:34:16.821Z,99268.22
2023-11-30T11:36:45.343Z,99271.72
2023-11-30T11:39:14.564Z,99263.66
2023-11-30T11:41:42.843Z,99265.53
2023-11-30T11:44:12.435Z,99260.97
2023-11-30T11:46:41.240Z,99261.81
2023-11-30T11:49:09.533Z,99257.47
2023-11-30T11:51:47.010Z,99252.72
2023-11-30T11:54:19.871Z,99256.44
2023-11-30T11:56:51.413Z,99254.34
2023-11-30T11:59:24.763Z,99244.44
2023-11-30T12:01:53.022Z,99248.97
2023-11-30T12:04:28.888Z,99240.91
2023-11-30T12:06:57.022Z,99234.72
2023-11-30T12:09:25.199Z,99225.63
2023-11-30T12:11:54.356Z,99216.72
2023-11-30T12:14:23.570Z,99207.03
2023-11-30T12:16:56.855Z,99200.25
2023-11-30T12:19:26.418Z,99201.31
2023-11-30T12:21:54.682Z,99199.44
2023-11-30T12:24:22.901Z,99190.31
2023-11-30T12:26:51.131Z,99191.38
2023-11-30T12:29:18.394Z,99187.03
2023-11-30T12:31:46.600Z,99188.69
2023-11-30T12:34:17.190Z,99189.50
2023-11-30T12:36:45.797Z,99187.88
2023-11-30T12:39:16.279Z,99181.66
2023-11-30T12:41:45.128Z,99180.63
2023-11-30T12:44:13.452Z,99176.09
2023-11-30T12:46:41.707Z,99181.47
2023-11-30T12:49:09.913Z,99184.75
2023-11-30T12:51:39.434Z,99183.69
2023-11-30T12:54:08.698Z,99185.56
2023-11-30T12:56:36.902Z,99180.19
2023-11-30T12:59:05.055Z,99177.50
2023-11-30T13:01:33.342Z,99179.97
2023-11-30T13:04:02.952Z,99173.19
2023-11-30T13:06:31.265Z,99170.50
2023-11-30T13:09:00.996Z,99170.50
2023-11-30T13:11:29.222Z,99164.28
2023-11-30T13:13:57.579Z,99162.66
2023-11-30T13:16:25.953Z,99158.09
2023-11-30T13:18:54.564Z,99160.78
2023-11-30T13:21:22.842Z,99161.84
2023-11-30T13:23:50.977Z,99160.19
2023-11-30T13:26:21.429Z,99153.78
2023-11-30T13:28:52.532Z,99152.13
2023-11-30T13:31:21.391Z,99142.44
2023-11-30T13:33:50.033Z,99148.63
2023-11-30T13:36:18.699Z,99129.00
2023-11-30T13:38:46.873Z,99128.41
2023-11-30T13:41:14.996Z,99125.50
2023-11-30T13:43:44.606Z,99128.41
2023-11-30T13:46:14.393Z,99126.78
2023-11-30T13:48:45.377Z,99117.66
2023-11-30T13:51:13.932Z,99112.28
2023-11-30T13:53:42.401Z,99120.94
2023-11-30T13:56:11.522Z,99095.72
2023-11-30T13:58:39.719Z,99098.41
2023-11-30T14:01:11.037Z,99088.50
2023-11-30T14:03:39.828Z,99070.53
2023-11-30T14:06:09.067Z,99065.16
2023-11-30T14:08:38.085Z,99047.38
2023-11-30T14:11:12.986Z,99037.69
2023-11-30T14:13:41.416Z,99046.81
2023-11-30T14:16:12.149Z,99026.94
2023-11-30T14:18:42.447Z,99021.78
2023-11-30T14:21:10.826Z,99007.53
2023-11-30T14:23:38.905Z,99010.22
2023-11-30T14:26:07.644Z,99008.59
2023-11-30T14:28:36.145Z,99001.56
2023-11-30T14:31:04.404Z,99011.50
2023-11-30T14:33:34.073Z,99035.69
2023-11-30T14:36:02.344Z,99010.69
2023-11-30T14:38:31.525Z,99001.00
2023-11-30T14:41:00.242Z,98993.97
2023-11-30T14:43:28.486Z,99003.69
2023-11-30T14:45:57.249Z,99017.13
2023-11-30T14:48:25.554Z,99022.50
2023-11-30T14:50:55.799Z,99009.06
2023-11-30T14:53:24.421Z,99002.03
2023-11-30T14:55:52.679Z,98976.84
2023-11-30T14:58:21.733Z,98973.09
2023-11-30T15:00:50.686Z,98979.53
2023-11-30T15:03:19.231Z,98980.09
2023-11-30T15:05:47.594Z,98969.34
2023-11-30T15:08:18.450Z,98973.69
2023-11-30T15:10:50.008Z,98976.38
2023-11-30T15:13:18.280Z,98969.34
2023-11-30T15:15:46.498Z,98977.41
2023-11-30T15:18:14.964Z,98986.31
2023-11-30T15:20:46.081Z,98985.47
2023-11-30T15:23:14.303Z,98983.03
2023-11-30T15:25:43.955Z,98981.75
2023-11-30T15:28:12.373Z,98984.66
2023-11-30T15:30:40.677Z,98978.47
2023-11-30T15:33:10.483Z,98987.59
2023-11-30T15:35:39.573Z,98985.94
2023-11-30T15:38:08.276Z,98988.59
2023-11-30T15:40:37.168Z,98990.47
2023-11-30T15:43:06.838Z,98985.94
2023-11-30T15:45:35.111Z,98985.94
2023-11-30T15:48:03.419Z,98988.84
2023-11-30T15:50:31.677Z,98991.53
2023-11-30T15:53:01.008Z,98993.41
2023-11-30T15:55:30.223Z,98992.34
2023-11-30T15:57:58.370Z,98993.41
2023-11-30T16:00:27.913Z,98988.03
2023-11-30T16:02:56.192Z,98988.25
2023-11-30T16:05:24.397Z,98982.88
2023-11-30T16:07:52.689Z,98979.38
2023-11-30T16:10:20.845Z,98984.75
2023-11-30T16:12:49.114Z,98980.41
2023-11-30T16:15:17.415Z,98983.09
2023-11-30T16:17:48.654Z,98974.22
2023-11-30T16:20:16.889Z,98970.50
2023-11-30T16:22:45.224Z,98965.38
2023-11-30T16:25:13.773Z,98959.19
2023-11-30T16:27:42.850Z,98964.56
2023-11-30T16:30:12.519Z,98969.09
2023-11-30T16:32:40.817Z,98958.38
2023-11-30T16:35:10.893Z,98953.81
2023-11-30T16:37:39.257Z,98942.25
2023-11-30T16:40:09.241Z,98935.22
2023-11-30T16:42:37.547Z,98929.03
2023-11-30T16:45:07.428Z,98929.03
2023-11-30T16:47:35.702Z,98930.66
2023-11-30T16:50:04.975Z,98921.00
2023-11-30T16:52:34.585Z,98916.44
2023-11-30T16:55:02.919Z,98911.66
2023-11-30T16:57:33.436Z,98912.47
2023-11-30T17:00:04.528Z,98917.03
2023-11-30T17:02:32.820Z,98918.66
2023-11-30T17:05:01.055Z,98906.88
2023-11-30T17:07:29.584Z,98904.19
2023-11-30T17:09:59.339Z,98892.66
2023-11-30T17:12:28.727Z,98893.47
2023-11-30T17:14:56.882Z,98889.72
2023-11-30T17:17:25.100Z,98891.59
2023-11-30T17:19:53.333Z,98880.03
2023-11-30T17:22:22.316Z,98889.97
2023-11-30T17:24:50.513Z,98886.44
2023-11-30T17:27:20.219Z,98893.69
2023-11-30T17:29:48.521Z,98891.81
2023-11-30T17:32:16.830Z,98891.81
2023-11-30T17:34:45.158Z,98889.38
2023-11-30T17:37:14.234Z,98873.47
2023-11-30T17:39:42.426Z,98868.09
2023-11-30T17:42:10.561Z,98873.72
2023-11-30T17:44:40.081Z,98878.25
2023-11-30T17:47:08.250Z,98872.06
2023-11-30T17:49:37.286Z,98869.63
2023-11-30T17:52:05.918Z,98871.25
2023-11-30T17:54:34.420Z,98861.56
2023-11-30T17:57:02.766Z,98863.19
2023-11-30T17:59:30.962Z,98867.97
2023-11-30T18:02:00.615Z,98873.34
2023-11-30T18:04:28.850Z,98872.53
2023-11-30T18:06:57.154Z,98858.28
2023-11-30T18:09:27.593Z,98859.09
2023-11-30T18:11:56.231Z,98856.41
2023-11-30T18:14:32.373Z,98857.81
2023-11-30T18:17:02.236Z,98853.06
2023-11-30T18:19:30.428Z,98846.03
2023-11-30T18:21:58.991Z,98854.09
2023-11-30T18:24:31.335Z,98842.31
2023-11-30T18:26:59.946Z,98844.75
2023-11-30T18:29:28.197Z,98835.88
2023-11-30T18:31:56.974Z,98834.00
2023-11-30T18:34:26.760Z,98835.88
2023-11-30T18:36:55.184Z,98834.84
2023-11-30T18:39:24.431Z,98822.47
2023-11-30T18:41:55.457Z,98827.84
2023-11-30T18:44:23.608Z,98832.38
2023-11-30T18:46:51.816Z,98832.38
2023-11-30T18:49:19.985Z,98836.13
2023-11-30T18:51:49.726Z,98836.34
2023-11-30T18:54:18.947Z,98824.00
2023-11-30T18:56:48.609Z,98822.94
2023-11-30T18:59:16.822Z,98815.09
2023-11-30T19:01:45.199Z,98806.22
2023-11-30T19:04:13.616Z,98816.97
2023-11-30T19:06:42.065Z,98813.25
2023-11-30T19:09:14.313Z,98812.19
2023-11-30T19:11:42.492Z,98804.34
2023-11-30T19:14:11.276Z,98809.72
2023-11-30T19:16:41.296Z,98809.50
2023-11-30T19:19:10.074Z,98806.81
2023-11-30T19:21:42.220Z,98811.13
2023-11-30T19:24:13.594Z,98812.19
2023-11-30T19:26:44.252Z,98827.00
2023-11-30T19:29:12.522Z,98808.00
2023-11-30T19:31:40.786Z,98809.03
2023-11-30T19:34:10.686Z,98808.00
2023-11-30T19:36:40.207Z,98797.25
2023-11-30T19:39:08.337Z,98806.72
2023-11-30T19:41:37.958Z,98798.88
2023-11-30T19:44:06.271Z,98797.25
2023-11-30T19:46:34.539Z,98798.88
2023-11-30T19:49:02.908Z,98806.94
2023-11-30T19:51:31.202Z,98802.63
2023-11-30T19:54:00.663Z,98798.06
2023-11-30T19:56:29.813Z,98797.25
2023-11-30T19:58:59.469Z,98784.88
2023-11-30T20:01:27.794Z,98790.25
2023-11-30T20:03:56.075Z,98792.94
2023-11-30T20:06:24.359Z,98790.25
2023-11-30T20:08:52.661Z,98779.50
2023-11-30T20:11:22.714Z,98784.88
2023-11-30T20:13:51.039Z,98783.00
2023-11-30T20:16:20.664Z,98780.31
2023-11-30T20:18:48.876Z,98767.94
2023-11-30T20:21:19.459Z,98762.78
2023-11-30T20:23:47.567Z,98761.78
2023-11-30T20:26:18.249Z,98760.72
2023-11-30T20:28:47.310Z,98767.94
2023-11-30T20:31:15.703Z,98779.50
2023-11-30T20:33:47.095Z,98778.69
2023-11-30T20:36:15.844Z,98778.47
2023-11-30T20:38:44.623Z,98762.09
2023-11-30T20:41:13.174Z,98754.88
2023-11-30T20:43:41.403Z,98752.19
2023-11-30T20:46:09.738Z,98761.63
2023-11-30T20:48:38.068Z,98749.28
2023-11-30T20:51:10.138Z,98752.19
2023-11-30T20:53:38.281Z,98752.78
2023-11-30T20:56:09.131Z,98757.09
2023-11-30T20:58:38.007Z,98758.13
2023-11-30T21:01:08.194Z,98767.25
2023-11-30T21:03:40.068Z,98756.53
2023-11-30T21:06:10.933Z,98748.47
2023-11-30T21:08:39.284Z,98763.75
2023-11-30T21:11:08.658Z,98762.09
2023-11-30T21:13:36.812Z,98753.03
2023-11-30T21:16:05.530Z,98758.38
2023-11-30T21:18:35.159Z,98754.88
2023-11-30T21:21:03.387Z,98748.69
2023-11-30T21:23:32.980Z,98749.50
2023-11-30T21:26:01.109Z,98748.47
2023-11-30T21:28:29.274Z,98754.88
2023-11-30T21:30:57.550Z,98743.09
2023-11-30T21:33:25.893Z,98755.47
2023-11-30T21:35:54.084Z,98753.03
2023-11-30T21:38:22.297Z,98752.19
2023-11-30T21:40:51.882Z,98755.72
2023-11-30T21:43:20.915Z,98758.13
2023-11-30T21:45:49.089Z,98750.91
2023-11-30T21:48:17.421Z,98756.06
2023-11-30T21:50:45.691Z,98752.56
2023-11-30T21:53:13.900Z,98762.22
2023-11-30T21:55:42.107Z,98765.72
2023-11-30T21:58:12.037Z,98749.63
2023-11-30T22:00:40.707Z,98749.63
2023-11-30T22:03:09.087Z,98753.09
2023-11-30T22:05:37.782Z,98754.19
2023-11-30T22:08:06.280Z,98757.09
2023-11-30T22:10:34.638Z,98750.09
2023-11-30T22:13:02.866Z,98760.00
2023-11-30T22:15:32.518Z,98753.84
2023-11-30T22:18:01.235Z,98754.06
2023-11-30T22:20:29.472Z,98761.06
2023-11-30T22:22:57.670Z,98750.56
2023-11-30T22:25:25.868Z,98737.34
2023-11-30T22:27:54.089Z,98741.91
2023-11-30T22:30:22.367Z,98736.53
2023-11-30T22:32:53.076Z,98731.97
2023-11-30T22:35:21.289Z,98726.63
2023-11-30T22:37:49.790Z,98725.81
2023-11-30T22:40:18.130Z,98725.00
2023-11-30T22:42:46.234Z,98721.50
2023-11-30T22:45:14.622Z,98721.25
2023-11-30T22:47:42.778Z,98715.06
2023-11-30T22:50:12.659Z,98716.72
2023-11-30T22:52:40.876Z,98718.34
2023-11-30T22:55:09.950Z,98713.78
2023-11-30T22:57:39.573Z,98710.88
2023-11-30T23:00:14.190Z,98710.88
2023-11-30T23:02:42.225Z,98710.88
2023-11-30T23:05:11.518Z,98700.13
2023-11-30T23:07:41.876Z,98705.50
2023-11-30T23:10:13.387Z,98704.69
2023-11-30T23:12:42.119Z,98701.16
2023-11-30T23:15:11.109Z,98701.41
2023-11-30T23:17:39.517Z,98690.91
2023-11-30T23:20:09.165Z,98685.78
2023-11-30T23:22:37.827Z,98680.41
2023-11-30T23:25:10.007Z,98691.16
2023-11-30T23:27:38.299Z,98690.31
2023-11-30T23:30:07.923Z,98680.84
2023-11-30T23:32:36.227Z,98691.59
2023-11-30T23:35:04.624Z,98697.81
2023-11-30T23:37:32.863Z,98691.59
2023-11-30T23:40:01.246Z,98691.38
2023-11-30T23:42:31.129Z,98680.84
2023-11-30T23:45:01.993Z,98685.41
2023-11-30T23:47:30.377Z,98687.06
2023-11-30T23:49:58.752Z,98694.53
2023-11-30T23:52:27.068Z,98696.16
2023-11-30T23:54:55.408Z,98699.44
2023-11-30T23:57:23.754Z,98699.22
2023-11-30T23:59:53.687Z,98698.16
